Time;durP1;ratioP1;P1;durP2;ratioP2;P2;SDS_P1;SDS_P2;PMS_P1;PMS_P2;Temp;Humidity;BMP_temperature;BMP_pressure;BME280_temperature;BME280_humidity;BME280_pressure;Samples;Min_cycle;Max_cycle;Signal;HPM_P1;HPM_P2
2021/12/08 00:03:17;;;;;;;46.07;43.27;;;;;;;6.39;100.00;98583.47;1879668;74;86259;-75
2021/12/08 00:09:05;;;;;;;48.43;43.77;;;;;;;6.47;100.00;98597.06;1914839;74;86851;-76
2021/12/08 00:14:46;;;;;;;48.07;45.07;;;;;;;6.36;100.00;98591.55;1983615;71;39627;-74
2021/12/08 00:20:32;;;;;;;45.33;42.40;;;;;;;6.17;100.00;98588.96;1842178;76;86086;-74
2021/12/08 00:26:18;;;;;;;47.03;43.83;;;;;;;6.23;100.00;98571.75;1879262;73;86563;-70
2021/12/08 00:32:02;;;;;;;50.17;46.20;;;;;;;6.16;100.00;98565.27;1910267;74;86208;-76
2021/12/08 00:37:49;;;;;;;47.87;44.37;;;;;;;6.28;100.00;98583.48;1930483;71;39628;-76
2021/12/08 00:43:34;;;;;;;46.83;43.53;;;;;;;6.20;100.00;98602.14;1826879;76;85375;-75
2021/12/08 00:49:18;;;;;;;47.20;43.93;;;;;;;6.30;100.00;98588.66;1884163;74;86676;-76
2021/12/08 00:55:05;;;;;;;47.10;43.90;;;;;;;6.30;100.00;98577.63;1910006;72;86668;-75
2021/12/08 01:00:52;;;;;;;47.00;43.50;;;;;;;6.28;100.00;98557.84;1976333;71;39539;-75
2021/12/08 01:06:38;;;;;;;45.63;42.33;;;;;;;6.26;100.00;98539.42;1903908;74;86158;-75
2021/12/08 01:12:20;;;;;;;46.63;43.63;;;;;;;6.32;100.00;98572.07;1808503;78;86612;-71
2021/12/08 01:18:05;;;;;;;48.50;45.00;;;;;;;6.32;100.00;98586.41;1907441;73;86852;-75
2021/12/08 01:23:51;;;;;;;46.13;42.87;;;;;;;6.36;100.00;98588.80;1928190;73;86290;-76
2021/12/08 01:29:36;;;;;;;47.33;43.87;;;;;;;6.34;100.00;98585.52;1802384;78;86072;-71
2021/12/08 01:35:22;;;;;;;47.23;43.77;;;;;;;6.23;100.00;98578.64;1797394;78;86292;-76
2021/12/08 01:41:08;;;;;;;44.47;41.17;;;;;;;6.44;100.00;98592.74;1897051;72;85127;-75
2021/12/08 01:46:52;;;;;;;42.37;39.43;;;;;;;6.51;100.00;98590.34;1816591;77;86342;-74
2021/12/08 01:52:36;;;;;;;42.47;39.57;;;;;;;6.71;100.00;98592.62;1793994;78;86398;-70
2021/12/08 01:58:23;;;;;;;41.40;38.93;;;;;;;6.72;100.00;98576.30;1881067;74;85689;-70
2021/12/08 02:04:11;;;;;;;42.30;39.50;;;;;;;6.72;100.00;98590.09;1880923;75;86155;-70
2021/12/08 02:09:53;;;;;;;43.23;40.30;;;;;;;6.64;100.00;98599.94;1912903;73;86508;-76
2021/12/08 02:15:39;;;;;;;41.93;39.23;;;;;;;6.80;100.00;98595.66;1939981;71;40422;-75
2021/12/08 02:21:27;;;;;;;42.53;39.83;;;;;;;6.77;100.00;98596.85;1884257;74;86044;-70
2021/12/08 02:27:14;;;;;;;42.10;39.40;;;;;;;6.78;100.00;98599.88;1875352;74;86533;-71
2021/12/08 02:51:11;;;;;;;43.60;40.73;;;;;;;6.63;100.00;98594.16;1878375;75;85658;-76
2021/12/08 02:56:56;;;;;;;44.60;41.40;;;;;;;6.65;100.00;98602.13;1921880;74;86231;-75
2021/12/08 03:02:40;;;;;;;45.57;42.47;;;;;;;6.69;100.00;98619.69;1985436;71;39679;-76
2021/12/08 03:08:24;;;;;;;46.60;43.57;;;;;;;6.65;100.00;98617.30;1881410;75;86527;-71
2021/12/08 03:17:15;;;;;;;44.33;41.63;;;;;;;6.63;100.00;98631.99;1964668;72;86757;-76
2021/12/08 03:19:46;;;;;;;47.40;43.90;;;;;;;6.61;100.00;98647.46;1887803;73;933696;-71
2021/12/08 03:22:16;;;;;;;46.60;43.30;;;;;;;6.58;100.00;98654.17;1889151;74;934772;-70
2021/12/08 03:24:48;;;;;;;47.83;44.63;;;;;;;6.55;100.00;98645.13;1889738;73;936677;-71
2021/12/08 03:27:24;;;;;;;48.03;44.50;;;;;;;6.61;100.00;98648.84;1902474;74;934581;-70
2021/12/08 03:29:55;;;;;;;45.87;42.73;;;;;;;6.56;100.00;98655.03;1926463;72;949519;-75
2021/12/08 03:32:31;;;;;;;44.53;41.60;;;;;;;6.63;100.00;98651.30;1902210;74;934790;-76
2021/12/08 03:34:59;;;;;;;46.40;43.40;;;;;;;6.65;100.00;98655.92;1901475;73;936825;-70
2021/12/08 03:37:32;;;;;;;44.20;41.40;;;;;;;6.69;100.00;98659.68;1889862;73;936708;-75
2021/12/08 03:40:06;;;;;;;45.40;42.37;;;;;;;6.65;100.00;98660.06;1940656;73;936785;-76
2021/12/08 03:42:39;;;;;;;45.20;42.05;;;;;;;6.69;100.00;98648.65;1889805;74;938729;-76
2021/12/08 03:45:12;;;;;;;44.60;41.37;;;;;;;6.70;100.00;98657.18;1902305;73;935631;-73
2021/12/08 03:47:46;;;;;;;46.00;42.93;;;;;;;6.63;100.00;98653.47;1889754;73;936519;-76
2021/12/08 03:50:19;;;;;;;45.20;42.23;;;;;;;6.58;100.00;98652.23;1902286;74;934912;-71
2021/12/08 03:52:49;;;;;;;43.77;40.63;;;;;;;6.67;100.00;98649.55;1889552;73;935654;-71
2021/12/08 03:55:20;;;;;;;44.80;41.60;;;;;;;6.65;100.00;98661.44;1940490;73;934687;-70
2021/12/08 03:57:50;;;;;;;45.73;42.40;;;;;;;6.63;100.00;98660.36;1902327;74;936685;-70
2021/12/08 04:00:24;;;;;;;44.37;41.47;;;;;;;6.61;100.00;98660.44;1902137;74;934830;-70
2021/12/08 04:02:55;;;;;;;45.33;42.10;;;;;;;6.67;100.00;98663.33;1940390;73;936614;-71
2021/12/08 04:05:40;;;;;;;43.83;40.83;;;;;;;6.63;100.00;98681.05;1901974;74;935016;-71
2021/12/08 04:11:17;;;;;;;45.80;42.33;;;;;;;6.72;100.00;98680.55;1887952;73;85767;-74
2021/12/08 04:17:06;;;;;;;46.87;43.70;;;;;;;6.73;100.00;98695.98;1943102;72;86433;-71
2021/12/08 04:22:54;;;;;;;45.73;42.10;;;;;;;6.65;100.00;98694.53;1944423;72;86508;-70
2021/12/08 04:28:40;;;;;;;45.83;42.63;;;;;;;6.63;100.00;98706.46;1977886;71;39558;-75
2021/12/08 04:34:30;;;;;;;45.83;42.63;;;;;;;6.62;100.00;98711.72;1854109;76;86393;-77
2021/12/08 04:40:22;;;;;;;44.30;41.37;;;;;;;6.76;100.00;98696.73;1884042;74;86275;-75
2021/12/08 04:46:12;;;;;;;43.93;40.53;;;;;;;6.65;100.00;98675.23;1909290;74;86276;-71
2021/12/08 04:51:58;;;;;;;46.63;43.40;;;;;;;6.58;100.00;98696.36;1942635;72;86391;-71
2021/12/08 05:04:14;;;;;;;45.60;42.23;;;;;;;6.64;100.00;98713.59;1936966;71;39659;-75
2021/12/08 05:09:51;;;;;;;46.43;42.87;;;;;;;6.65;100.00;98713.84;1947730;72;86068;-75
2021/12/08 05:15:41;;;;;;;42.97;40.07;;;;;;;6.66;100.00;98705.83;1891363;74;86360;-75
2021/12/08 05:21:29;;;;;;;44.27;40.93;;;;;;;6.67;100.00;98706.91;1830558;76;86887;-76
2021/12/08 05:24:03;;;;;;;42.47;39.57;;;;;;;6.64;100.00;98719.10;1749147;80;934756;-75
2021/12/08 05:29:52;;;;;;;45.83;42.53;;;;;;;6.69;100.00;98728.64;1976764;71;39517;-76
2021/12/08 05:35:39;;;;;;;48.03;44.07;;;;;;;6.51;100.00;98734.56;1981084;71;39813;-75
2021/12/08 05:41:27;;;;;;;47.53;43.90;;;;;;;6.49;100.00;98751.17;1892619;74;86701;-73
2021/12/08 05:47:14;;;;;;;44.43;41.10;;;;;;;6.59;100.00;98746.83;1876022;75;85478;-70
2021/12/08 05:52:59;;;;;;;43.47;40.63;;;;;;;6.58;100.00;98747.38;1912217;74;86360;-75
2021/12/08 05:58:45;;;;;;;44.70;41.27;;;;;;;6.54;100.00;98782.78;1930500;71;39621;-70
2021/12/08 06:04:32;;;;;;;45.00;41.83;;;;;;;6.40;100.00;98778.11;1866188;76;86233;-76
2021/12/08 06:10:18;;;;;;;44.33;41.23;;;;;;;6.47;100.00;98782.37;1891562;73;86567;-70
2021/12/08 06:16:05;;;;;;;45.30;42.07;;;;;;;6.33;100.00;98803.87;1915581;72;86509;-76
2021/12/08 06:21:51;;;;;;;49.53;46.07;;;;;;;6.35;100.00;98817.36;1821935;77;86370;-76
2021/12/08 06:27:36;;;;;;;45.50;42.40;;;;;;;6.33;100.00;98820.42;1801654;78;86515;-71
2021/12/08 06:33:24;;;;;;;48.20;44.40;;;;;;;6.34;100.00;98823.44;1884703;74;86250;-76
2021/12/08 06:39:11;;;;;;;46.80;43.87;;;;;;;6.21;100.00;98817.92;1891656;73;86025;-71
2021/12/08 06:44:58;;;;;;;47.63;44.20;;;;;;;6.28;100.00;98823.30;1939031;72;85603;-75
2021/12/08 06:50:47;;;;;;;44.80;41.80;;;;;;;6.22;100.00;98825.08;1975150;71;39681;-70
2021/12/08 06:56:34;;;;;;;44.33;40.93;;;;;;;6.32;100.00;98816.05;1845990;76;86339;-73
2021/12/08 07:02:36;;;;;;;44.83;41.43;;;;;;;6.31;100.00;98813.59;1808797;78;86235;-71
2021/12/08 07:11:25;;;;;;;47.10;43.87;;;;;;;6.30;100.00;98820.22;1883199;74;86356;-70
2021/12/08 07:17:14;;;;;;;48.47;45.10;;;;;;;6.19;100.00;98815.48;1865135;75;86674;-74
2021/12/08 07:23:00;;;;;;;47.53;43.73;;;;;;;6.32;100.00;98845.55;1905996;72;86488;-70
2021/12/08 07:28:46;;;;;;;45.73;42.20;;;;;;;6.33;100.00;98841.69;1983914;71;39771;-74
2021/12/08 07:34:35;;;;;;;47.00;43.60;;;;;;;6.30;100.00;98859.63;1836501;76;85331;-74
2021/12/08 07:40:24;;;;;;;45.57;42.50;;;;;;;6.37;100.00;98868.89;1879769;75;85933;-78
2021/12/08 07:46:13;;;;;;;43.73;40.57;;;;;;;6.35;100.00;98873.88;1880203;75;86355;-75
2021/12/08 07:52:05;;;;;;;45.50;42.47;;;;;;;6.38;100.00;98873.27;1903948;74;86601;-78
2021/12/08 07:57:49;;;;;;;45.57;42.37;;;;;;;6.42;100.00;98892.20;1982618;71;39404;-75
2021/12/08 08:03:37;;;;;;;45.20;42.00;;;;;;;6.43;100.00;98884.20;1811644;78;86387;-71
2021/12/08 08:09:22;;;;;;;43.13;39.70;;;;;;;6.56;100.00;98902.69;1809165;77;86475;-76
2021/12/08 08:15:12;;;;;;;46.50;42.90;;;;;;;6.58;100.00;98914.25;1883385;75;86941;-75
2021/12/08 08:20:59;;;;;;;44.83;41.20;;;;;;;6.64;100.00;98909.42;1910511;72;86453;-69
2021/12/08 08:26:48;;;;;;;44.60;41.40;;;;;;;6.72;100.00;98916.42;1974173;71;39555;-70
2021/12/08 08:32:37;;;;;;;45.17;41.77;;;;;;;6.69;100.00;98911.52;1835891;76;86535;-74
2021/12/08 08:38:29;;;;;;;43.00;39.63;;;;;;;6.82;100.00;98910.70;1849966;76;86431;-73
2021/12/08 08:44:19;;;;;;;41.63;38.13;;;;;;;6.94;100.00;98918.45;1887607;73;85828;-69
2021/12/08 08:50:06;;;;;;;42.67;39.63;;;;;;;6.93;100.00;98922.92;1901115;72;85956;-74
2021/12/08 08:55:55;;;;;;;44.40;40.57;;;;;;;7.06;100.00;98932.53;1926195;73;85550;-73
2021/12/08 09:01:46;;;;;;;40.73;37.57;;;;;;;7.16;100.00;98935.64;1951483;71;39626;-74
2021/12/08 09:07:34;;;;;;;41.73;38.40;;;;;;;7.14;100.00;98933.22;1905252;74;86455;-73
2021/12/08 09:13:20;;;;;;;40.80;37.77;;;;;;;7.12;100.00;98947.05;1898016;73;86471;-74
2021/12/08 09:19:11;;;;;;;41.00;37.83;;;;;;;7.28;100.00;98945.59;1914215;74;86462;-69
2021/12/08 09:24:59;;;;;;;39.70;36.73;;;;;;;7.27;100.00;98961.33;1913399;72;86418;-73
2021/12/08 09:34:05;;;;;;;37.43;34.70;;;;;;;7.38;100.00;98972.16;1919134;73;86486;-74
2021/12/08 09:39:54;;;;;;;37.33;34.47;;;;;;;7.50;100.00;98982.11;1936874;73;86572;-74
2021/12/08 09:48:48;;;;;;;39.43;36.40;;;;;;;7.54;100.00;98996.38;1987493;69;39572;-68
2021/12/08 09:51:22;;;;;;;38.07;35.07;;;;;;;7.46;100.00;99000.43;1930357;73;932807;-74
2021/12/08 09:53:53;;;;;;;38.20;35.20;;;;;;;7.48;100.00;99007.86;1925670;73;936586;-75
2021/12/08 09:56:24;;;;;;;39.20;36.27;;;;;;;7.47;100.00;98997.93;1882258;73;934761;-74
2021/12/08 09:58:56;;;;;;;37.47;34.50;;;;;;;7.49;100.00;99004.77;1864101;73;936626;-68
2021/12/08 10:01:28;;;;;;;36.90;34.30;;;;;;;7.54;100.00;99002.45;1852666;74;936610;-74
2021/12/08 10:03:59;;;;;;;39.10;36.07;;;;;;;7.56;100.00;99004.36;1863791;75;935766;-68
2021/12/08 10:09:44;;;;;;;38.13;35.23;;;;;;;7.64;100.00;99013.29;1979949;71;44567;-74
2021/12/08 10:15:29;;;;;;;37.77;34.43;;;;;;;7.67;100.00;99030.63;1838561;75;86628;-74
2021/12/08 10:21:15;;;;;;;35.00;32.40;;;;;;;7.77;100.00;99028.46;1882921;74;86619;-76
2021/12/08 10:27:06;;;;;;;36.17;33.33;;;;;;;7.81;100.00;99025.06;1914749;74;86227;-75
2021/12/08 10:32:53;;;;;;;34.63;31.97;;;;;;;7.92;100.00;99034.74;1936665;72;86222;-74
2021/12/08 10:38:55;;;;;;;35.83;33.23;;;;;;;7.99;100.00;99036.53;1933312;73;86344;-70
2021/12/08 10:44:47;;;;;;;37.37;34.63;;;;;;;8.01;100.00;99045.31;1979312;71;39678;-75
2021/12/08 10:56:40;;;;;;;35.50;33.00;;;;;;;8.22;100.00;99048.67;1979360;71;39479;-75
2021/12/08 11:02:47;;;;;;;33.73;31.47;;;;;;;8.34;100.00;99068.91;1848946;75;86270;-75
2021/12/08 11:08:48;;;;;;;35.87;33.00;;;;;;;8.33;100.00;99063.67;1978080;71;39587;-70
2021/12/08 11:14:46;;;;;;;36.80;33.73;;;;;;;8.27;100.00;99062.12;1850779;76;85747;-75
2021/12/08 11:20:46;;;;;;;37.90;35.10;;;;;;;8.34;100.00;99083.30;1927244;71;39562;-77
2021/12/08 11:26:37;;;;;;;37.27;34.77;;;;;;;8.40;100.00;99086.17;1891450;74;86283;-69
2021/12/08 11:32:24;;;;;;;40.27;37.23;;;;;;;8.38;100.00;99092.60;1909547;74;86509;-70
2021/12/08 11:38:08;;;;;;;38.93;35.97;;;;;;;8.38;100.00;99099.52;1881395;73;86558;-71
2021/12/08 11:43:55;;;;;;;37.60;34.63;;;;;;;8.41;100.00;99111.33;1911791;72;86267;-70
2021/12/08 11:49:45;;;;;;;38.17;35.27;;;;;;;8.44;100.00;99108.75;1935717;72;39494;-74
2021/12/08 11:55:32;;;;;;;38.73;35.97;;;;;;;8.49;100.00;99116.93;1972281;71;85910;-69
2021/12/08 12:01:18;;;;;;;37.60;34.73;;;;;;;8.43;100.00;99130.63;1887260;73;86226;-74
2021/12/08 12:07:02;;;;;;;37.10;34.00;;;;;;;8.42;100.00;99140.64;1904314;72;86148;-74
2021/12/08 12:12:46;;;;;;;38.03;34.63;;;;;;;8.47;100.00;99145.47;1978319;71;39560;-70
2021/12/08 12:18:34;;;;;;;34.37;32.03;;;;;;;8.43;100.00;99150.58;1835117;76;85494;-73
2021/12/08 12:24:33;;;;;;;35.97;32.93;;;;;;;8.56;100.00;99160.75;1881090;75;86463;-74
2021/12/08 12:30:35;;;;;;;35.77;33.27;;;;;;;8.68;100.00;99164.59;1884955;74;85566;-70
2021/12/08 12:33:17;;;;;;;33.77;31.27;;;;;;;8.59;100.00;99171.22;1847422;76;934605;-71
2021/12/08 12:39:16;;;;;;;32.63;30.13;;;;;;;8.66;100.00;99170.20;1930482;73;85971;-70
2021/12/08 12:45:14;;;;;;;33.60;31.20;;;;;;;8.64;100.00;99178.02;1858230;76;86259;-71
2021/12/08 12:51:03;;;;;;;32.47;30.03;;;;;;;8.66;100.00;99184.86;1921979;73;86535;-74
2021/12/08 12:56:55;;;;;;;33.53;30.77;;;;;;;8.66;100.00;99195.11;1908751;72;86491;-71
2021/12/08 13:02:47;;;;;;;32.20;29.70;;;;;;;8.68;100.00;99199.19;1990163;71;39445;-74
2021/12/08 13:11:58;;;;;;;33.23;30.33;;;;;;;8.74;100.00;99211.53;1979550;71;39621;-71
2021/12/08 13:18:04;;;;;;;31.63;29.30;;;;;;;8.74;100.00;99204.61;1980419;71;39426;-75
2021/12/08 13:23:50;;;;;;;30.60;28.57;;;;;;;8.80;100.00;99224.13;1949915;73;86750;-70
2021/12/08 13:29:36;;;;;;;31.13;28.83;;;;;;;8.81;100.00;99213.32;1850892;75;86071;-74
2021/12/08 13:35:35;;;;;;;28.83;26.57;;;;;;;8.82;100.00;99222.67;1893321;74;86577;-74
2021/12/08 13:41:22;;;;;;;29.13;26.83;;;;;;;8.82;100.00;99227.39;1807901;78;86072;-70
2021/12/08 13:47:10;;;;;;;29.37;27.17;;;;;;;8.80;100.00;99229.11;1825967;77;87141;-75
2021/12/08 13:53:08;;;;;;;27.83;25.27;;;;;;;8.86;100.00;99243.06;1943009;72;85505;-75
2021/12/08 13:58:53;;;;;;;26.17;24.40;;;;;;;8.98;100.00;99237.81;1938970;71;86851;-71
2021/12/08 14:04:38;;;;;;;26.53;24.63;;;;;;;8.99;100.00;99246.91;1929856;70;39631;-75
2021/12/08 14:10:25;;;;;;;26.80;24.90;;;;;;;9.00;100.00;99262.40;1882446;74;86576;-71
2021/12/08 14:16:13;;;;;;;26.80;24.80;;;;;;;9.01;100.00;99264.87;1880283;74;86533;-76
2021/12/08 14:22:00;;;;;;;27.87;25.77;;;;;;;8.95;100.00;99291.59;1912035;72;86210;-70
2021/12/08 14:27:44;;;;;;;25.10;23.43;;;;;;;8.95;100.00;99291.59;1981752;71;39604;-70
2021/12/08 14:33:28;;;;;;;24.23;22.63;;;;;;;8.83;100.00;99297.69;1848687;76;86042;-72
2021/12/08 14:39:20;;;;;;;24.23;22.33;;;;;;;8.68;100.00;99306.34;1888615;74;86417;-72
2021/12/08 14:45:10;;;;;;;22.70;21.10;;;;;;;8.58;100.00;99327.31;1907208;72;86374;-70
2021/12/08 14:50:56;;;;;;;22.60;21.10;;;;;;;8.55;100.00;99343.98;1920181;74;86174;-70
2021/12/08 14:56:44;;;;;;;23.20;21.30;;;;;;;8.53;100.00;99342.62;1975666;71;40079;-73
2021/12/08 15:02:35;;;;;;;23.83;22.07;;;;;;;8.57;100.00;99340.32;1826372;76;86754;-73
2021/12/08 15:08:24;;;;;;;22.10;20.43;;;;;;;8.44;100.00;99345.86;1816443;78;86411;-73
2021/12/08 15:14:16;;;;;;;23.83;21.90;;;;;;;8.36;100.00;99364.00;1844229;76;86707;-72
2021/12/08 15:20:08;;;;;;;24.80;22.87;;;;;;;8.24;100.00;99382.46;1917244;74;86606;-74
2021/12/08 15:25:55;;;;;;;23.70;21.60;;;;;;;8.19;100.00;99380.34;1923357;72;86180;-73
2021/12/08 15:31:41;;;;;;;23.53;21.40;;;;;;;8.24;100.00;99383.84;1985724;71;39748;-73
2021/12/08 15:37:33;;;;;;;22.33;20.60;;;;;;;8.19;100.00;99391.41;1836583;76;86489;-69
2021/12/08 15:43:22;;;;;;;22.10;20.33;;;;;;;8.14;100.00;99415.83;1804101;78;86806;-73
2021/12/08 15:49:07;;;;;;;22.60;20.87;;;;;;;8.08;100.00;99414.86;1911953;74;86346;-69
2021/12/08 15:54:54;;;;;;;23.60;21.73;;;;;;;8.01;100.00;99419.38;1919710;72;85378;-69
2021/12/08 16:00:45;;;;;;;22.23;20.63;;;;;;;8.04;100.00;99429.03;1938413;71;39474;-76
2021/12/08 16:06:34;;;;;;;23.27;21.20;;;;;;;7.97;100.00;99435.49;1883696;74;86494;-72
2021/12/08 16:12:25;;;;;;;23.40;21.53;;;;;;;7.86;100.00;99437.63;1883798;75;86510;-76
2021/12/08 16:18:12;;;;;;;24.30;22.10;;;;;;;7.78;100.00;99463.19;1823794;77;86473;-77
2021/12/08 16:23:56;;;;;;;24.40;22.80;;;;;;;7.77;100.00;99473.98;1912743;72;86269;-77
2021/12/08 16:29:40;;;;;;;25.50;23.40;;;;;;;7.60;100.00;99491.09;2004294;71;32880;-75
2021/12/08 16:35:25;;;;;;;25.43;23.50;;;;;;;7.62;100.00;99499.89;2001170;71;32890;-74
2021/12/08 16:47:13;;;;;;;26.00;23.70;;;;;;;7.55;100.00;99495.86;2015059;71;32951;-75
2021/12/08 16:52:59;;;;;;;25.10;23.17;;;;;;;7.51;100.00;99501.72;2006350;71;32856;-75
2021/12/08 16:58:44;;;;;;;22.30;20.50;;;;;;;7.60;100.00;99502.14;2016249;71;32911;-71
2021/12/08 17:04:28;;;;;;;23.53;21.53;;;;;;;7.71;100.00;99508.33;2016994;71;32836;-75
2021/12/08 17:10:14;;;;;;;23.10;20.90;;;;;;;7.71;100.00;99509.16;2000639;71;32836;-79
2021/12/08 17:15:59;;;;;;;22.23;19.93;;;;;;;7.74;100.00;99510.52;2011081;71;32833;-78
2021/12/08 17:21:46;;;;;;;22.33;20.73;;;;;;;7.66;100.00;99527.73;2002325;71;32803;-79
2021/12/08 17:27:31;;;;;;;21.50;19.67;;;;;;;7.71;100.00;99520.77;2013529;71;32894;-74
2021/12/08 17:33:17;;;;;;;22.33;20.33;;;;;;;7.73;100.00;99536.50;2009908;71;32882;-74
2021/12/08 17:39:02;;;;;;;23.43;21.37;;;;;;;7.63;100.00;99549.06;2002788;71;32839;-74
2021/12/08 17:44:47;;;;;;;22.93;21.07;;;;;;;7.63;100.00;99562.33;2016345;71;32931;-75
2021/12/08 17:50:36;;;;;;;22.50;20.43;;;;;;;7.68;100.00;99583.55;2002231;71;32872;-76
2021/12/08 18:44:38;;;;;;;31.40;28.83;;;;;;;7.44;100.00;99663.71;1846661;77;26721;-77
2021/12/08 18:50:53;;;;;;;31.03;28.37;;;;;;;7.44;100.00;99670.61;1901863;75;33705;-75
2021/12/08 18:56:38;;;;;;;32.17;29.47;;;;;;;7.37;100.00;99677.02;1941881;73;33814;-70
2021/12/08 19:02:24;;;;;;;34.43;31.93;;;;;;;7.32;100.00;99679.28;1909119;73;40756;-71
2021/12/08 19:08:08;;;;;;;34.67;31.70;;;;;;;7.32;100.00;99686.74;1765742;77;86320;-77
2021/12/08 19:13:52;;;;;;;38.53;35.07;;;;;;;7.35;100.00;99693.64;1845502;75;86399;-70
2021/12/08 19:19:37;;;;;;;37.40;34.13;;;;;;;7.33;100.00;99703.03;1918284;72;86445;-75
2021/12/08 19:25:24;;;;;;;40.10;36.60;;;;;;;7.33;100.00;99709.94;1906109;74;39467;-70
2021/12/08 19:31:12;;;;;;;35.67;33.07;;;;;;;7.43;100.00;99715.09;1866172;75;86577;-72
2021/12/08 19:36:57;;;;;;;35.27;32.57;;;;;;;7.39;100.00;99720.39;1862933;75;86509;-73
2021/12/08 19:42:41;;;;;;;34.60;31.93;;;;;;;7.41;100.00;99727.81;1914074;73;86428;-71
2021/12/08 19:48:26;;;;;;;34.30;31.60;;;;;;;7.42;100.00;99745.22;1911438;74;40294;-75
2021/12/08 19:54:11;;;;;;;34.30;31.53;;;;;;;7.45;100.00;99751.53;1819571;76;86516;-77
2021/12/08 19:59:56;;;;;;;33.13;30.97;;;;;;;7.62;100.00;99772.08;1868851;74;86636;-78
2021/12/08 20:05:42;;;;;;;36.50;33.90;;;;;;;7.59;100.00;99792.02;1911099;73;86345;-76
2021/12/08 20:11:28;;;;;;;43.53;40.57;;;;;;;7.54;100.00;99800.34;1912083;74;39870;-78
2021/12/08 20:17:13;;;;;;;43.63;40.53;;;;;;;7.40;100.00;99788.89;1873798;76;86766;-77
2021/12/08 20:22:57;;;;;;;44.17;40.93;;;;;;;7.26;100.00;99776.31;1862796;75;85342;-72
2021/12/08 20:28:42;;;;;;;46.57;43.53;;;;;;;7.18;100.00;99773.62;1909349;74;86311;-74
2021/12/08 20:34:29;;;;;;;45.23;42.07;;;;;;;7.13;100.00;99775.03;1906785;74;39643;-75
2021/12/08 20:40:14;;;;;;;45.47;42.37;;;;;;;7.06;100.00;99787.53;1789564;77;86849;-77
2021/12/08 20:45:58;;;;;;;44.27;41.20;;;;;;;7.07;100.00;99792.73;1865062;75;86243;-80
2021/12/08 20:51:43;;;;;;;44.10;41.23;;;;;;;7.03;100.00;99798.58;1936111;73;86479;-74
2021/12/08 20:57:28;;;;;;;48.50;45.47;;;;;;;6.98;100.00;99805.51;1907171;74;39587;-71
2021/12/08 21:03:15;;;;;;;48.20;45.10;;;;;;;7.04;100.00;99800.23;1851555;75;86478;-75
2021/12/08 21:08:58;;;;;;;42.23;39.30;;;;;;;7.05;100.00;99802.44;1860748;75;85723;-71
2021/12/08 21:14:43;;;;;;;43.97;41.17;;;;;;;6.95;100.00;99806.64;1929288;72;86165;-72
2021/12/08 21:20:28;;;;;;;44.67;42.07;;;;;;;6.93;100.00;99817.16;1907145;74;39538;-75
2021/12/08 21:26:16;;;;;;;44.17;41.27;;;;;;;7.04;100.00;99826.45;1784298;78;86751;-74
2021/12/08 21:31:58;;;;;;;44.03;41.07;;;;;;;7.03;100.00;99813.76;1861463;75;86169;-76
2021/12/08 21:37:41;;;;;;;46.17;43.03;;;;;;;7.08;100.00;99830.30;1907601;73;86398;-72
2021/12/08 21:43:28;;;;;;;43.03;39.80;;;;;;;7.16;100.00;99841.27;1868363;73;39600;-81
2021/12/08 21:52:30;;;;;;;39.90;37.17;;;;;;;7.23;100.00;99834.30;1855389;73;40371;-75
2021/12/08 21:58:17;;;;;;;40.53;37.90;;;;;;;7.29;100.00;99845.59;1829654;76;86438;-74
2021/12/08 22:04:02;;;;;;;40.17;37.37;;;;;;;7.35;100.00;99849.70;1806850;78;86630;-76
2021/12/08 22:09:44;;;;;;;39.10;36.67;;;;;;;7.25;100.00;99856.95;1897397;73;86057;-74
2021/12/08 22:15:22;;;;;;;39.20;36.40;;;;;;;7.36;100.00;99879.78;1837891;73;39433;-76
2021/12/08 22:21:10;;;;;;;42.03;38.70;;;;;;;7.31;100.00;99869.63;1830803;76;86599;-74
2021/12/08 22:26:54;;;;;;;41.93;39.20;;;;;;;7.35;100.00;99875.39;1869678;74;86129;-78
2021/12/08 22:32:38;;;;;;;43.47;40.27;;;;;;;7.33;100.00;99878.44;1910623;74;87037;-81
2021/12/08 22:38:23;;;;;;;44.07;41.27;;;;;;;7.32;100.00;99879.54;1862945;73;39709;-80
2021/12/08 22:44:08;;;;;;;42.70;39.87;;;;;;;7.30;100.00;99881.78;1832092;77;86933;-77
2021/12/08 22:49:53;;;;;;;42.37;38.97;;;;;;;7.33;100.00;99883.95;1913106;72;86744;-77
2021/12/08 22:55:38;;;;;;;43.40;40.63;;;;;;;7.24;100.00;99891.75;1918279;73;85439;-77
2021/12/08 23:01:26;;;;;;;42.97;40.17;;;;;;;7.17;100.00;99897.61;1932102;71;39487;-75
2021/12/08 23:07:12;;;;;;;41.63;38.83;;;;;;;7.01;100.00;99897.44;1849210;76;85703;-73
2021/12/08 23:12:54;;;;;;;42.67;39.50;;;;;;;7.01;100.00;99900.75;1893704;74;86189;-75
2021/12/08 23:18:40;;;;;;;41.30;38.60;;;;;;;6.95;100.00;99908.23;1935074;73;85844;-77
2021/12/08 23:24:25;;;;;;;40.07;37.20;;;;;;;6.95;100.00;99901.87;1984789;71;39615;-73
2021/12/08 23:30:13;;;;;;;39.53;36.73;;;;;;;6.84;100.00;99903.88;1964986;69;86260;-72
2021/12/08 23:36:01;;;;;;;40.33;37.60;;;;;;;6.80;100.00;99911.88;1886399;74;86532;-75
2021/12/08 23:44:52;;;;;;;40.63;38.00;;;;;;;6.81;100.00;99908.56;1898260;75;86415;-75
2021/12/08 23:47:22;;;;;;;39.95;37.13;;;;;;;6.78;100.00;99922.94;1825083;75;934743;-76
2021/12/08 23:53:06;;;;;;;39.23;36.70;;;;;;;6.80;100.00;99924.30;1839201;76;86660;-74
2021/12/08 23:58:53;;;;;;;42.20;39.10;;;;;;;6.83;100.00;99919.61;1872523;75;86817;-75
